WZZ1097 EPKT-EKBI
Flight info
| Callsign | WZZ1097 |
|---|---|
| Flight time | N/A |
| Altitude | 34000 |
| Route | LUMVE L619 NUDRO DCT BINKA DCT SONAL DCT LOKSA |
| Aircraft | A21N/M-SDE3FGHIRWY/LB1 |
Departure
| Time | N/A |
|---|---|
| Airport | Katowice Wojciech Korfanty International Airport (EPKT) |
Arrival
| Time | 2026-05-07 20:47 |
|---|---|
| Airport | Billund Airport (EKBI) |
| Time | Latitude | Longitude | Altitude | Speed | Heading |
|---|---|---|---|---|---|
| 2026-05-07 19:41 | 50.79575 | 18.10638 | 21035 ft | 390 kts | 302° |
| 2026-05-07 19:41 | 50.81224 | 18.07211 | 21581 ft | 393 kts | 302° |
| 2026-05-07 19:42 | 50.82879 | 18.03756 | 22080 ft | 396 kts | 302° |
| 2026-05-07 19:42 | 50.84551 | 18.00258 | 22564 ft | 399 kts | 302° |
| 2026-05-07 19:42 | 50.86231 | 17.96740 | 23044 ft | 403 kts | 301° |
| 2026-05-07 19:42 | 50.87930 | 17.93187 | 23518 ft | 406 kts | 301° |
| 2026-05-07 19:43 | 50.89636 | 17.89610 | 23909 ft | 409 kts | 301° |
| 2026-05-07 19:43 | 50.91359 | 17.85990 | 24294 ft | 412 kts | 301° |
| 2026-05-07 19:43 | 50.93093 | 17.82338 | 24668 ft | 415 kts | 301° |
| 2026-05-07 19:43 | 50.94836 | 17.78674 | 25034 ft | 418 kts | 301° |
| 2026-05-07 19:44 | 50.96572 | 17.75018 | 25395 ft | 422 kts | 301° |
| 2026-05-07 19:44 | 50.98362 | 17.71233 | 25781 ft | 424 kts | 301° |
| 2026-05-07 19:44 | 51.00140 | 17.67472 | 26161 ft | 427 kts | 301° |
| 2026-05-07 19:44 | 51.01901 | 17.63739 | 26527 ft | 429 kts | 301° |
| 2026-05-07 19:45 | 51.03693 | 17.59930 | 26875 ft | 432 kts | 301° |
| 2026-05-07 19:45 | 51.05495 | 17.56091 | 27214 ft | 435 kts | 301° |
| 2026-05-07 19:45 | 51.07307 | 17.52223 | 27548 ft | 438 kts | 301° |
| 2026-05-07 19:45 | 51.09130 | 17.48332 | 27881 ft | 440 kts | 301° |
| 2026-05-07 19:46 | 51.10974 | 17.44410 | 28203 ft | 443 kts | 301° |
| 2026-05-07 19:46 | 51.12825 | 17.40464 | 28519 ft | 446 kts | 301° |
| 2026-05-07 19:46 | 51.14679 | 17.36504 | 28828 ft | 449 kts | 301° |
| 2026-05-07 19:46 | 51.16731 | 17.32686 | 29185 ft | 458 kts | 311° |
| 2026-05-07 19:47 | 51.19227 | 17.29490 | 29553 ft | 464 kts | 320° |
| 2026-05-07 19:47 | 51.21902 | 17.26563 | 29873 ft | 467 kts | 321° |
| 2026-05-07 19:47 | 51.24601 | 17.23652 | 30143 ft | 469 kts | 321° |
| 2026-05-07 19:47 | 51.27306 | 17.20718 | 30353 ft | 472 kts | 321° |
| 2026-05-07 19:48 | 51.30022 | 17.17750 | 30591 ft | 474 kts | 321° |
| 2026-05-07 19:48 | 51.32743 | 17.14756 | 30848 ft | 475 kts | 321° |
| 2026-05-07 19:48 | 51.35469 | 17.11749 | 31095 ft | 477 kts | 321° |
| 2026-05-07 19:48 | 51.38196 | 17.08732 | 31387 ft | 476 kts | 321° |
| 2026-05-07 19:49 | 51.40926 | 17.05718 | 31729 ft | 475 kts | 321° |
| 2026-05-07 19:49 | 51.43641 | 17.02713 | 32054 ft | 474 kts | 321° |
| 2026-05-07 19:49 | 51.46332 | 16.99732 | 32484 ft | 470 kts | 321° |
| 2026-05-07 19:49 | 51.49013 | 16.96756 | 32909 ft | 466 kts | 321° |
| 2026-05-07 19:50 | 51.51662 | 16.93803 | 33228 ft | 462 kts | 323° |
| 2026-05-07 19:50 | 51.54309 | 16.90850 | 33468 ft | 462 kts | 321° |
| 2026-05-07 19:50 | 51.56946 | 16.87905 | 33665 ft | 463 kts | 321° |
| 2026-05-07 19:50 | 51.59588 | 16.84949 | 33895 ft | 462 kts | 321° |
| 2026-05-07 19:51 | 51.62225 | 16.81986 | 34078 ft | 463 kts | 321° |
| 2026-05-07 19:51 | 51.64837 | 16.79053 | 34102 ft | 462 kts | 321° |
| 2026-05-07 19:51 | 51.70104 | 16.73131 | 34077 ft | 462 kts | 321° |
| 2026-05-07 19:52 | 51.75353 | 16.67178 | 34078 ft | 459 kts | 321° |
| 2026-05-07 19:52 | 51.80575 | 16.61269 | 34073 ft | 457 kts | 321° |
| 2026-05-07 19:53 | 51.85786 | 16.55360 | 34072 ft | 457 kts | 321° |
| 2026-05-07 19:53 | 51.90991 | 16.49455 | 34073 ft | 457 kts | 321° |
| 2026-05-07 19:54 | 51.96187 | 16.43531 | 34080 ft | 457 kts | 321° |
| 2026-05-07 19:54 | 52.01400 | 16.37641 | 34081 ft | 457 kts | 321° |
| 2026-05-07 19:55 | 52.06600 | 16.31712 | 34085 ft | 456 kts | 322° |
| 2026-05-07 19:55 | 52.11775 | 16.25765 | 34083 ft | 456 kts | 322° |
| 2026-05-07 19:56 | 52.16952 | 16.19801 | 34084 ft | 455 kts | 321° |
| 2026-05-07 19:56 | 52.22124 | 16.13820 | 34082 ft | 455 kts | 321° |
| 2026-05-07 19:57 | 52.27295 | 16.07832 | 34080 ft | 455 kts | 321° |
| 2026-05-07 19:57 | 52.32448 | 16.01825 | 34093 ft | 454 kts | 322° |
| 2026-05-07 19:58 | 52.37526 | 15.95886 | 34089 ft | 450 kts | 322° |
| 2026-05-07 19:58 | 52.42631 | 15.89928 | 34096 ft | 451 kts | 322° |
| 2026-05-07 19:59 | 52.47733 | 15.83951 | 34091 ft | 451 kts | 322° |
| 2026-05-07 19:59 | 52.52831 | 15.77963 | 34092 ft | 450 kts | 322° |
| 2026-05-07 20:00 | 52.57915 | 15.71963 | 34095 ft | 450 kts | 322° |
| 2026-05-07 20:00 | 52.63002 | 15.65939 | 34106 ft | 448 kts | 322° |
| 2026-05-07 20:01 | 52.68044 | 15.59952 | 34095 ft | 446 kts | 322° |
| 2026-05-07 20:01 | 52.73083 | 15.53955 | 34101 ft | 446 kts | 322° |
| 2026-05-07 20:02 | 52.78109 | 15.47955 | 34106 ft | 446 kts | 322° |
| 2026-05-07 20:02 | 52.83139 | 15.41935 | 34108 ft | 446 kts | 322° |
| 2026-05-07 20:03 | 52.88134 | 15.35929 | 34104 ft | 446 kts | 322° |
| 2026-05-07 20:03 | 52.93151 | 15.29889 | 34117 ft | 443 kts | 322° |
| 2026-05-07 20:04 | 52.98127 | 15.23889 | 34114 ft | 442 kts | 322° |
| 2026-05-07 20:04 | 53.03093 | 15.17853 | 34116 ft | 442 kts | 322° |
| 2026-05-07 20:05 | 53.08059 | 15.11828 | 34115 ft | 442 kts | 322° |
| 2026-05-07 20:05 | 53.13034 | 15.05779 | 34117 ft | 442 kts | 322° |
| 2026-05-07 20:06 | 53.18004 | 14.99701 | 34114 ft | 442 kts | 322° |
| 2026-05-07 20:06 | 53.22946 | 14.93587 | 34118 ft | 442 kts | 322° |
| 2026-05-07 20:07 | 53.27914 | 14.87510 | 34125 ft | 442 kts | 322° |
| 2026-05-07 20:07 | 53.32868 | 14.81407 | 34127 ft | 442 kts | 322° |
| 2026-05-07 20:08 | 53.37803 | 14.75237 | 34129 ft | 443 kts | 322° |
| 2026-05-07 20:08 | 53.42733 | 14.69158 | 34126 ft | 443 kts | 322° |
| 2026-05-07 20:09 | 53.47664 | 14.62980 | 34139 ft | 442 kts | 322° |
| 2026-05-07 20:10 | 53.55060 | 14.53736 | 34137 ft | 441 kts | 322° |
| 2026-05-07 20:10 | 53.59984 | 14.47585 | 34139 ft | 441 kts | 322° |
| 2026-05-07 20:11 | 53.64903 | 14.41399 | 34153 ft | 441 kts | 322° |
| 2026-05-07 20:11 | 53.69806 | 14.35206 | 34159 ft | 441 kts | 322° |
| 2026-05-07 20:12 | 53.74723 | 14.29001 | 34166 ft | 441 kts | 322° |
| 2026-05-07 20:12 | 53.79638 | 14.22805 | 34174 ft | 444 kts | 321° |
| 2026-05-07 20:13 | 53.84608 | 14.16373 | 34181 ft | 453 kts | 322° |
| 2026-05-07 20:13 | 53.89621 | 14.09835 | 34177 ft | 462 kts | 322° |
| 2026-05-07 20:14 | 53.94747 | 14.03177 | 34160 ft | 465 kts | 322° |
| 2026-05-07 20:14 | 53.99876 | 13.96484 | 34160 ft | 465 kts | 322° |
| 2026-05-07 20:15 | 54.04998 | 13.89760 | 34165 ft | 465 kts | 321° |
| 2026-05-07 20:15 | 54.10108 | 13.83028 | 34167 ft | 464 kts | 322° |
| 2026-05-07 20:16 | 54.15212 | 13.76301 | 34166 ft | 464 kts | 322° |
| 2026-05-07 20:16 | 54.20324 | 13.69546 | 34165 ft | 464 kts | 322° |
| 2026-05-07 20:17 | 54.25418 | 13.62789 | 34161 ft | 464 kts | 323° |
| 2026-05-07 20:17 | 54.30508 | 13.55995 | 34167 ft | 464 kts | 322° |
| 2026-05-07 20:18 | 54.35595 | 13.49212 | 34163 ft | 464 kts | 322° |
| 2026-05-07 20:18 | 54.40683 | 13.42394 | 34159 ft | 463 kts | 323° |
| 2026-05-07 20:19 | 54.45751 | 13.35575 | 34168 ft | 463 kts | 323° |
| 2026-05-07 20:19 | 54.50784 | 13.28780 | 34171 ft | 463 kts | 322° |
| 2026-05-07 20:20 | 54.55844 | 13.21931 | 34165 ft | 462 kts | 323° |
| 2026-05-07 20:20 | 54.60896 | 13.15058 | 34170 ft | 462 kts | 323° |
| 2026-05-07 20:21 | 54.65945 | 13.08178 | 34167 ft | 462 kts | 323° |
| 2026-05-07 20:21 | 54.70988 | 13.01278 | 34159 ft | 463 kts | 323° |
| 2026-05-07 20:22 | 54.76038 | 12.94371 | 34161 ft | 463 kts | 323° |
| 2026-05-07 20:22 | 54.81087 | 12.87432 | 34164 ft | 463 kts | 323° |
| 2026-05-07 20:23 | 54.86099 | 12.80417 | 34163 ft | 464 kts | 320° |
| 2026-05-07 20:23 | 54.88235 | 12.76280 | 34162 ft | 468 kts | 307° |
| 2026-05-07 20:23 | 54.89856 | 12.71357 | 34176 ft | 471 kts | 298° |
| 2026-05-07 20:24 | 54.92715 | 12.61121 | 34170 ft | 471 kts | 298° |
| 2026-05-07 20:24 | 54.95583 | 12.50905 | 34171 ft | 470 kts | 298° |
| 2026-05-07 20:25 | 54.98464 | 12.40662 | 34172 ft | 470 kts | 298° |
| 2026-05-07 20:25 | 55.00861 | 12.32153 | 34170 ft | 463 kts | 298° |
| 2026-05-07 20:26 | 55.03673 | 12.22154 | 33273 ft | 457 kts | 298° |
| 2026-05-07 20:26 | 55.05080 | 12.17177 | 32247 ft | 461 kts | 298° |
| 2026-05-07 20:26 | 55.06503 | 12.12092 | 31522 ft | 469 kts | 297° |
| 2026-05-07 20:26 | 55.07926 | 12.06960 | 30982 ft | 471 kts | 297° |
| 2026-05-07 20:27 | 55.09340 | 12.01807 | 30436 ft | 472 kts | 297° |
| 2026-05-07 20:27 | 55.10761 | 11.96690 | 29820 ft | 473 kts | 297° |
| 2026-05-07 20:27 | 55.12196 | 11.91518 | 29167 ft | 474 kts | 296° |
| 2026-05-07 20:27 | 55.13627 | 11.86328 | 28557 ft | 475 kts | 296° |
| 2026-05-07 20:28 | 55.15059 | 11.81101 | 27991 ft | 476 kts | 296° |
| 2026-05-07 20:28 | 55.16486 | 11.75886 | 27398 ft | 477 kts | 296° |
| 2026-05-07 20:28 | 55.17922 | 11.70627 | 26784 ft | 478 kts | 296° |
| 2026-05-07 20:28 | 55.19363 | 11.65387 | 26187 ft | 479 kts | 296° |
| 2026-05-07 20:29 | 55.20800 | 11.60111 | 25591 ft | 480 kts | 296° |
| 2026-05-07 20:29 | 55.22226 | 11.54828 | 25013 ft | 481 kts | 295° |
| 2026-05-07 20:29 | 55.23655 | 11.49528 | 24412 ft | 482 kts | 296° |
| 2026-05-07 20:29 | 55.25102 | 11.44233 | 23804 ft | 478 kts | 296° |
| 2026-05-07 20:30 | 55.26525 | 11.38994 | 23118 ft | 474 kts | 295° |
| 2026-05-07 20:30 | 55.27924 | 11.33792 | 22518 ft | 469 kts | 295° |
| 2026-05-07 20:30 | 55.29288 | 11.28629 | 21904 ft | 463 kts | 295° |
| 2026-05-07 20:30 | 55.30636 | 11.23535 | 21227 ft | 457 kts | 295° |
| 2026-05-07 20:31 | 55.31962 | 11.18540 | 20688 ft | 457 kts | 295° |
| 2026-05-07 20:31 | 55.33303 | 11.13501 | 20143 ft | 453 kts | 295° |
| 2026-05-07 20:31 | 55.34635 | 11.08506 | 19602 ft | 450 kts | 295° |
| 2026-05-07 20:31 | 55.35960 | 11.03555 | 19073 ft | 446 kts | 295° |
| 2026-05-07 20:32 | 55.37270 | 10.98631 | 18537 ft | 443 kts | 295° |
| 2026-05-07 20:32 | 55.38566 | 10.93745 | 17964 ft | 439 kts | 295° |
| 2026-05-07 20:32 | 55.39863 | 10.88814 | 17404 ft | 436 kts | 295° |
| 2026-05-07 20:32 | 55.41132 | 10.83997 | 16934 ft | 433 kts | 295° |
| 2026-05-07 20:33 | 55.42383 | 10.79255 | 16547 ft | 431 kts | 295° |
| 2026-05-07 20:33 | 55.43638 | 10.74486 | 15993 ft | 426 kts | 295° |
| 2026-05-07 20:33 | 55.44871 | 10.69765 | 15370 ft | 421 kts | 294° |
| 2026-05-07 20:33 | 55.46075 | 10.65128 | 14916 ft | 410 kts | 294° |
| 2026-05-07 20:34 | 55.47248 | 10.60637 | 14523 ft | 396 kts | 295° |
| 2026-05-07 20:34 | 55.48392 | 10.56315 | 14199 ft | 382 kts | 295° |
| 2026-05-07 20:34 | 55.49492 | 10.52138 | 13928 ft | 368 kts | 295° |
| 2026-05-07 20:34 | 55.50542 | 10.48083 | 13425 ft | 360 kts | 294° |
| 2026-05-07 20:35 | 55.51578 | 10.44067 | 12769 ft | 358 kts | 294° |
| 2026-05-07 20:35 | 55.52617 | 10.40083 | 12176 ft | 357 kts | 295° |
| 2026-05-07 20:35 | 55.53646 | 10.36129 | 11701 ft | 355 kts | 294° |
| 2026-05-07 20:35 | 55.54675 | 10.32140 | 11257 ft | 354 kts | 294° |
| 2026-05-07 20:36 | 55.55694 | 10.28185 | 10856 ft | 353 kts | 294° |
| 2026-05-07 20:36 | 55.56701 | 10.24228 | 10435 ft | 352 kts | 294° |
| 2026-05-07 20:36 | 55.57715 | 10.20287 | 10057 ft | 351 kts | 294° |
| 2026-05-07 20:36 | 55.58717 | 10.16376 | 9593 ft | 348 kts | 294° |
| 2026-05-07 20:37 | 55.59711 | 10.12493 | 9126 ft | 345 kts | 294° |
| 2026-05-07 20:37 | 55.60690 | 10.08646 | 8676 ft | 341 kts | 294° |
| 2026-05-07 20:37 | 55.61657 | 10.04825 | 8235 ft | 339 kts | 294° |
| 2026-05-07 20:37 | 55.62618 | 10.01044 | 7819 ft | 336 kts | 294° |
| 2026-05-07 20:38 | 55.63571 | 9.97282 | 7402 ft | 334 kts | 294° |
| 2026-05-07 20:38 | 55.64500 | 9.93610 | 6977 ft | 331 kts | 294° |
| 2026-05-07 20:38 | 55.65455 | 9.89844 | 6536 ft | 329 kts | 294° |
| 2026-05-07 20:38 | 55.66387 | 9.86160 | 6081 ft | 325 kts | 294° |
| 2026-05-07 20:39 | 55.67275 | 9.82642 | 5742 ft | 310 kts | 294° |
| 2026-05-07 20:39 | 55.68133 | 9.79230 | 5515 ft | 296 kts | 294° |
| 2026-05-07 20:39 | 55.68952 | 9.75970 | 5155 ft | 288 kts | 294° |
| 2026-05-07 20:39 | 55.69770 | 9.72705 | 4416 ft | 293 kts | 293° |
| 2026-05-07 20:40 | 55.70589 | 9.69418 | 4007 ft | 290 kts | 293° |
| 2026-05-07 20:40 | 55.71406 | 9.66148 | 3649 ft | 289 kts | 293° |
| 2026-05-07 20:40 | 55.72215 | 9.62898 | 3292 ft | 287 kts | 293° |
| 2026-05-07 20:40 | 55.73009 | 9.59666 | 3154 ft | 286 kts | 292° |
| 2026-05-07 20:41 | 55.73780 | 9.56402 | 3147 ft | 289 kts | 292° |
| 2026-05-07 20:41 | 55.74570 | 9.53110 | 3156 ft | 290 kts | 293° |
| 2026-05-07 20:41 | 55.75390 | 9.49844 | 3173 ft | 290 kts | 293° |
| 2026-05-07 20:41 | 55.76162 | 9.46653 | 3138 ft | 268 kts | 291° |
| 2026-05-07 20:42 | 55.76918 | 9.43659 | 3131 ft | 263 kts | 290° |
| 2026-05-07 20:42 | 55.77061 | 9.40567 | 3077 ft | 244 kts | 251° |
| 2026-05-07 20:42 | 55.76215 | 9.38149 | 2884 ft | 225 kts | 229° |
| 2026-05-07 20:42 | 55.75201 | 9.36011 | 2378 ft | 218 kts | 233° |
| 2026-05-07 20:43 | 55.74488 | 9.33845 | 2836 ft | 206 kts | 250° |
| 2026-05-07 20:43 | 55.74433 | 9.31284 | 3294 ft | 217 kts | 274° |
| 2026-05-07 20:43 | 55.74662 | 9.28427 | 3108 ft | 242 kts | 264° |
| 2026-05-07 20:43 | 55.73999 | 9.25897 | 3363 ft | 215 kts | 225° |
| 2026-05-07 20:44 | 55.72711 | 9.24870 | 2870 ft | 205 kts | 187° |
| 2026-05-07 20:44 | 55.71335 | 9.25073 | 2616 ft | 202 kts | 153° |
| 2026-05-07 20:44 | 55.70479 | 9.26981 | 2553 ft | 196 kts | 105° |
| 2026-05-07 20:44 | 55.70712 | 9.29188 | 2305 ft | 180 kts | 51° |
| 2026-05-07 20:45 | 55.71782 | 9.30146 | 2053 ft | 177 kts | 359° |
| 2026-05-07 20:45 | 55.72911 | 9.29250 | 1880 ft | 177 kts | 319° |
| 2026-05-07 20:45 | 55.73597 | 9.27669 | 1616 ft | 159 kts | 299° |
| 2026-05-07 20:45 | 55.74069 | 9.25917 | 1200 ft | 156 kts | 293° |
| 2026-05-07 20:46 | 55.74265 | 9.24045 | 1007 ft | 156 kts | 273° |
| 2026-05-07 20:46 | 55.74254 | 9.22129 | 742 ft | 155 kts | 267° |
| 2026-05-07 20:46 | 55.74159 | 9.20231 | 538 ft | 154 kts | 268° |
| 2026-05-07 20:46 | 55.74124 | 9.18332 | 329 ft | 154 kts | 267° |
| 2026-05-07 20:47 | 55.74071 | 9.16512 | 231 ft | 135 kts | 267° |
| 2026-05-07 20:47 | 55.74032 | 9.15090 | 221 ft | 79 kts | 266° |
| 2026-05-07 20:47 | 55.74017 | 9.14638 | 221 ft | 0 kts | 266° |
| 2026-05-07 20:47 | 55.74016 | 9.14610 | 221 ft | 6 kts | 265° |
| 2026-05-07 20:48 | 55.74008 | 9.14524 | 221 ft | 8 kts | 258° |
| 2026-05-07 20:48 | 55.74005 | 9.14505 | 221 ft | 0 kts | 256° |
| 2026-05-07 20:48 | 55.74005 | 9.14506 | 221 ft | 0 kts | 257° |
| 2026-05-07 20:48 | 55.74005 | 9.14507 | 221 ft | 0 kts | 257° |
| 2026-05-07 20:49 | 55.73973 | 9.14457 | 221 ft | 8 kts | 232° |
| 2026-05-07 20:49 | 55.73932 | 9.14375 | 221 ft | 10 kts | 224° |
| 2026-05-07 20:49 | 55.73879 | 9.14279 | 221 ft | 12 kts | 233° |
| 2026-05-07 20:49 | 55.73847 | 9.14138 | 224 ft | 14 kts | 254° |
| 2026-05-07 20:50 | 55.73835 | 9.13960 | 221 ft | 15 kts | 266° |
| 2026-05-07 20:50 | 55.73829 | 9.13783 | 221 ft | 14 kts | 266° |
| 2026-05-07 20:50 | 55.73820 | 9.13683 | 221 ft | 2 kts | 216° |
| 2026-05-07 20:50 | 55.73792 | 9.13683 | 221 ft | 5 kts | 176° |
| 2026-05-07 20:51 | 55.73750 | 9.13689 | 221 ft | 0 kts | 176° |